createdAt,value
2022-08-11T06:09:34.397Z,6.60
2022-08-11T06:12:20.269Z,4.18
2022-08-11T06:15:01.447Z,4.40
2022-08-11T06:17:48.567Z,4.00
2022-08-11T06:20:26.760Z,4.38
2022-08-11T06:23:08.233Z,3.90
2022-08-11T06:25:47.910Z,4.00
2022-08-11T06:28:34.842Z,3.63
2022-08-11T06:31:18.837Z,3.80
2022-08-11T06:34:12.121Z,3.90
2022-08-11T06:37:21.267Z,4.15
2022-08-11T06:40:11.568Z,3.45
2022-08-11T06:42:59.074Z,3.67
2022-08-11T06:45:43.490Z,3.40
2022-08-11T06:48:23.460Z,3.20
2022-08-11T06:51:13.482Z,3.67
2022-08-11T06:54:04.404Z,3.63
2022-08-11T07:00:33.093Z,4.00
2022-08-11T07:03:14.804Z,4.55
2022-08-11T07:05:57.121Z,3.95
2022-08-11T07:09:25.121Z,3.95
2022-08-11T07:12:31.991Z,4.10
2022-08-11T07:16:10.835Z,4.32
2022-08-11T07:18:43.366Z,4.60
2022-08-11T07:21:59.916Z,5.68
2022-08-11T07:25:02.244Z,6.68
2022-08-11T07:28:20.743Z,6.22
2022-08-11T07:31:08.185Z,5.75
2022-08-11T07:34:06.376Z,6.45
2022-08-11T07:36:54.788Z,6.35
2022-08-11T07:39:37.236Z,6.57
2022-08-11T07:42:17.504Z,6.30
2022-08-11T07:45:12.642Z,5.85
2022-08-11T07:48:04.763Z,5.82
2022-08-11T07:50:57.614Z,5.68
2022-08-11T07:53:57.887Z,5.05
2022-08-11T07:56:54.413Z,4.68
2022-08-11T08:00:03.411Z,4.55
2022-08-11T08:03:03.863Z,4.82
2022-08-11T08:05:54.283Z,4.80
2022-08-11T08:08:43.981Z,4.65
2022-08-11T08:11:38.047Z,4.22
2022-08-11T08:14:28.463Z,3.75
2022-08-11T08:17:17.887Z,4.80
2022-08-11T08:19:59.375Z,4.05
2022-08-11T08:22:38.795Z,3.80
2022-08-11T08:25:18.842Z,3.92
2022-08-11T08:27:58.571Z,4.15
2022-08-11T08:30:48.572Z,3.70
2022-08-11T08:33:28.711Z,3.95
2022-08-11T08:36:17.294Z,4.78
2022-08-11T08:38:57.405Z,3.63
2022-08-11T08:41:39.925Z,3.40
2022-08-11T08:44:37.664Z,4.00
2022-08-11T08:47:41.048Z,3.97
2022-08-11T08:50:19.983Z,3.08
2022-08-11T08:53:07.601Z,3.90
2022-08-11T08:55:46.090Z,3.28
2022-08-11T08:58:25.514Z,3.13
2022-08-11T09:01:04.451Z,2.97
2022-08-11T09:04:06.753Z,2.88
2022-08-11T09:06:43.463Z,2.72
2022-08-11T09:09:28.367Z,2.58
2022-08-11T09:12:07.215Z,2.65
2022-08-11T09:15:04.123Z,2.60
2022-08-11T09:17:45.439Z,2.50
2022-08-11T09:20:25.963Z,2.55
2022-08-11T09:24:06.609Z,2.35
2022-08-11T09:26:32.024Z,1.85
2022-08-11T09:29:11.010Z,2.35
2022-08-11T09:31:49.295Z,2.38
2022-08-11T09:34:27.688Z,2.20
2022-08-11T09:37:55.385Z,2.00
2022-08-11T09:40:33.965Z,2.17
2022-08-11T09:43:29.027Z,1.80
2022-08-11T09:46:06.676Z,1.70
2022-08-11T09:48:47.902Z,1.40
2022-08-11T09:51:26.252Z,1.60
2022-08-11T09:54:06.873Z,1.50
2022-08-11T09:56:56.391Z,1.77
2022-08-11T09:59:36.977Z,1.50
2022-08-11T10:02:14.821Z,1.60
2022-08-11T10:04:52.972Z,1.45
2022-08-11T10:07:27.588Z,1.90
2022-08-11T10:10:07.213Z,1.60
2022-08-11T10:12:51.791Z,1.70
2022-08-11T10:15:38.687Z,1.20
2022-08-11T10:18:32.383Z,1.80
2022-08-11T10:21:15.576Z,1.27
2022-08-11T10:24:06.024Z,1.30
2022-08-11T10:27:00.362Z,1.30
2022-08-11T10:29:58.182Z,1.77
2022-08-11T10:32:58.604Z,1.40
2022-08-11T10:35:37.372Z,1.65
2022-08-11T10:38:17.223Z,1.52
2022-08-11T10:41:14.983Z,1.80
2022-08-11T10:44:01.722Z,1.50
2022-08-11T10:46:54.067Z,1.48
2022-08-11T10:49:35.240Z,1.38
2022-08-11T10:52:24.150Z,1.25
2022-08-11T10:55:13.519Z,1.33
2022-08-11T10:58:04.643Z,1.35
2022-08-11T11:00:42.579Z,1.70
2022-08-11T11:03:22.960Z,1.23
2022-08-11T11:06:28.562Z,1.17
2022-08-11T11:09:12.033Z,1.00
2022-08-11T11:12:08.557Z,1.05
2022-08-11T11:14:59.606Z,1.13
2022-08-11T11:17:55.640Z,1.20
2022-08-11T11:20:47.065Z,1.50
2022-08-11T11:23:32.500Z,1.30
2022-08-11T11:26:39.141Z,1.00
2022-08-11T11:29:55.063Z,1.13
2022-08-11T11:32:49.426Z,1.40
2022-08-11T11:35:39.501Z,1.23
2022-08-11T11:38:16.472Z,1.13
2022-08-11T11:41:09.390Z,1.42
2022-08-11T11:43:47.152Z,1.75
2022-08-11T11:46:29.617Z,1.15
2022-08-11T11:51:56.493Z,1.40
2022-08-11T11:54:36.974Z,1.27
2022-08-11T11:57:32.320Z,1.10
2022-08-11T12:00:24.212Z,1.27
2022-08-11T12:03:14.738Z,1.33
2022-08-11T14:14:13.993Z,0.80
2022-08-11T14:16:54.423Z,0.93
2022-08-11T14:19:31.623Z,1.00
2022-08-11T14:22:08.490Z,1.17
2022-08-11T14:24:49.927Z,0.98
2022-08-11T14:28:29.814Z,0.90
2022-08-11T14:31:00.444Z,1.00
2022-08-11T14:33:58.806Z,0.73
2022-08-11T14:36:41.706Z,1.10
2022-08-11T14:39:22.425Z,0.90
2022-08-11T14:42:14.762Z,2.10
2022-08-11T14:45:06.923Z,1.08
2022-08-11T14:47:51.077Z,0.93
2022-08-11T14:50:30.844Z,0.85
2022-08-11T14:53:14.285Z,0.88
2022-08-11T14:56:09.031Z,1.10
2022-08-11T14:58:47.255Z,1.20
2022-08-11T15:01:36.762Z,1.20
2022-08-11T15:04:35.201Z,0.95
2022-08-11T15:07:16.811Z,0.90
2022-08-11T15:10:12.161Z,1.33
2022-08-11T15:12:50.262Z,1.50
2022-08-11T15:15:41.514Z,1.20
2022-08-11T15:18:20.955Z,1.13
2022-08-11T15:21:13.030Z,1.20
2022-08-11T15:24:02.325Z,1.08
2022-08-11T15:26:55.689Z,1.20
2022-08-11T15:29:48.309Z,1.20
2022-08-11T15:32:38.462Z,1.20
2022-08-11T15:35:38.782Z,1.50
2022-08-11T15:38:23.174Z,1.17
2022-08-11T15:41:13.731Z,1.30
2022-08-11T15:44:10.350Z,1.00
2022-08-11T15:46:55.435Z,1.25
2022-08-11T15:50:11.075Z,1.10
2022-08-11T15:52:39.644Z,1.80
2022-08-11T15:55:21.788Z,1.23
2022-08-11T16:01:04.240Z,1.77
2022-08-11T16:04:08.736Z,1.20
2022-08-11T16:07:00.970Z,1.27
2022-08-11T16:09:48.096Z,1.38
2022-08-11T16:12:34.976Z,1.50
2022-08-11T16:15:26.611Z,1.20
2022-08-11T16:18:08.559Z,1.08
2022-08-11T16:20:47.021Z,1.75
2022-08-11T16:23:27.748Z,1.33
2022-08-11T16:27:07.904Z,1.15
2022-08-11T16:29:06.288Z,1.38
2022-08-11T16:32:06.181Z,1.20
2022-08-11T16:34:56.989Z,1.33
2022-08-11T16:40:41.093Z,1.30
2022-08-11T16:43:34.372Z,1.15
2022-08-11T16:46:33.661Z,1.30
2022-08-11T16:49:12.706Z,1.40
2022-08-11T16:51:48.591Z,1.23
2022-08-11T16:54:24.498Z,1.30
2022-08-11T17:47:25.587Z,1.58
2022-08-11T17:50:14.592Z,3.35
2022-08-11T17:53:07.629Z,1.98
2022-08-11T18:55:16.744Z,1.80
2022-08-11T18:58:06.884Z,2.10
2022-08-11T19:00:56.984Z,2.38
